Mc Minnville Municipal Airport Mc Minnville US
ICAO: KMMV
IATA: MMV
Category: Medium
Scheduled Services: No

Elevation: 163 ft
TransAlt. 18000 ft.

Airport Communications:
PORTLAND APP/DEP:126
ASOS:135.675
PORTLAND CLNC DEL:118.35
SEATTLE CNTR:125.8
RDO:122.3
CTAF/UNICOM:123

KMMV Zoom In..

Runways:

(A) RW 04 length 5420 ft width 150 ft
---- / hdg 38

(B) RW 17 length 4340 ft width 75 ft
---- / hdg 167

(C) RW 22 length 5420 ft width 150 ft
ILS 110.90 / hdg 218

(D) RW 35 length 4340 ft width 75 ft
---- / hdg 347

Location; KMMV
Day. 15 / Time. 22.53 Zulu
* Altimeter: 29.90
* Temperature: 35° c. 95°f.
* Wind from: 000° Speed 00 kn.
Dewpoint: 09° c.
Visibility: 10 Statute Miles.
Clouds: Clear (automated report).

KMMV 152253Z AUTO 00000KT 10SM CLR 35/09 A2990 RMK AO2 SLP122 T03500094


Wind - Calm.

 
 
jpsmedia.com for Web Design worldairports.se 2018   terms of use